sensor_id;sensor_type;location;lat;lon;timestamp;P1;durP1;ratioP1;P2;durP2;ratioP2
29688;SDS011;16600;47.444;8.334;2022-08-03T00:02:58;2.92;;;1.95;;
29688;SDS011;16600;47.444;8.334;2022-08-03T00:05:24;3.92;;;1.92;;
29688;SDS011;16600;47.444;8.334;2022-08-03T00:10:15;3.55;;;2.08;;
29688;SDS011;16600;47.444;8.334;2022-08-03T00:15:06;3.78;;;2.03;;
29688;SDS011;16600;47.444;8.334;2022-08-03T00:19:57;2.38;;;2.00;;
29688;SDS011;16600;47.444;8.334;2022-08-03T00:22:22;3.50;;;1.90;;
29688;SDS011;16600;47.444;8.334;2022-08-03T00:27:13;4.10;;;2.45;;
29688;SDS011;16600;47.444;8.334;2022-08-03T00:32:04;3.40;;;2.25;;
29688;SDS011;16600;47.444;8.334;2022-08-03T00:36:55;3.08;;;2.42;;
29688;SDS011;16600;47.444;8.334;2022-08-03T00:41:46;2.30;;;2.10;;
29688;SDS011;16600;47.444;8.334;2022-08-03T00:44:12;9.93;;;2.03;;
29688;SDS011;16600;47.444;8.334;2022-08-03T00:49:03;5.07;;;2.80;;
29688;SDS011;16600;47.444;8.334;2022-08-03T00:51:29;5.72;;;2.45;;
29688;SDS011;16600;47.444;8.334;2022-08-03T00:56:20;3.13;;;2.83;;
29688;SDS011;16600;47.444;8.334;2022-08-03T01:01:10;2.50;;;2.30;;
29688;SDS011;16600;47.444;8.334;2022-08-03T01:07:10;3.92;;;2.35;;
29688;SDS011;16600;47.444;8.334;2022-08-03T01:11:35;4.20;;;2.33;;
29688;SDS011;16600;47.444;8.334;2022-08-03T01:14:08;3.00;;;2.70;;
29688;SDS011;16600;47.444;8.334;2022-08-03T01:21:26;2.60;;;2.40;;
29688;SDS011;16600;47.444;8.334;2022-08-03T01:23:56;3.15;;;2.80;;
29688;SDS011;16600;47.444;8.334;2022-08-03T01:26:43;3.40;;;2.30;;
29688;SDS011;16600;47.444;8.334;2022-08-03T01:31:58;12.98;;;2.63;;
29688;SDS011;16600;47.444;8.334;2022-08-03T01:34:27;2.90;;;2.10;;
29688;SDS011;16600;47.444;8.334;2022-08-03T01:36:53;4.68;;;2.53;;
29688;SDS011;16600;47.444;8.334;2022-08-03T01:39:20;4.30;;;2.25;;
29688;SDS011;16600;47.444;8.334;2022-08-03T01:41:48;4.20;;;3.00;;
29688;SDS011;16600;47.444;8.334;2022-08-03T01:44:13;3.40;;;2.92;;
29688;SDS011;16600;47.444;8.334;2022-08-03T01:49:08;9.18;;;2.80;;
29688;SDS011;16600;47.444;8.334;2022-08-03T01:51:38;3.40;;;2.75;;
29688;SDS011;16600;47.444;8.334;2022-08-03T01:54:05;2.92;;;2.72;;
29688;SDS011;16600;47.444;8.334;2022-08-03T01:56:32;5.45;;;2.80;;
29688;SDS011;16600;47.444;8.334;2022-08-03T01:58:58;4.68;;;3.05;;
29688;SDS011;16600;47.444;8.334;2022-08-03T02:01:25;5.97;;;2.55;;
29688;SDS011;16600;47.444;8.334;2022-08-03T02:03:51;5.30;;;3.08;;
29688;SDS011;16600;47.444;8.334;2022-08-03T02:08:42;3.80;;;2.80;;
29688;SDS011;16600;47.444;8.334;2022-08-03T02:11:09;3.25;;;2.95;;
29688;SDS011;16600;47.444;8.334;2022-08-03T02:16:02;3.78;;;2.88;;
29688;SDS011;16600;47.444;8.334;2022-08-03T02:18:28;6.47;;;3.42;;
29688;SDS011;16600;47.444;8.334;2022-08-03T02:20:54;3.45;;;2.92;;
29688;SDS011;16600;47.444;8.334;2022-08-03T02:25:53;3.50;;;3.20;;
29688;SDS011;16600;47.444;8.334;2022-08-03T02:28:20;6.72;;;3.90;;
29688;SDS011;16600;47.444;8.334;2022-08-03T02:30:49;7.40;;;2.97;;
29688;SDS011;16600;47.444;8.334;2022-08-03T02:33:17;3.10;;;2.45;;
29688;SDS011;16600;47.444;8.334;2022-08-03T02:35:44;3.50;;;3.20;;
29688;SDS011;16600;47.444;8.334;2022-08-03T02:38:14;3.45;;;2.90;;
29688;SDS011;16600;47.444;8.334;2022-08-03T02:40:41;5.97;;;3.35;;
29688;SDS011;16600;47.444;8.334;2022-08-03T02:43:09;3.28;;;2.97;;
29688;SDS011;16600;47.444;8.334;2022-08-03T02:45:41;7.32;;;4.10;;
29688;SDS011;16600;47.444;8.334;2022-08-03T02:48:08;3.88;;;3.13;;
29688;SDS011;16600;47.444;8.334;2022-08-03T02:50:35;4.75;;;3.35;;
29688;SDS011;16600;47.444;8.334;2022-08-03T02:53:02;6.60;;;3.50;;
29688;SDS011;16600;47.444;8.334;2022-08-03T02:55:28;4.18;;;3.30;;
29688;SDS011;16600;47.444;8.334;2022-08-03T02:57:55;8.00;;;3.55;;
29688;SDS011;16600;47.444;8.334;2022-08-03T03:00:21;5.00;;;3.35;;
29688;SDS011;16600;47.444;8.334;2022-08-03T03:05:13;3.35;;;2.92;;
29688;SDS011;16600;47.444;8.334;2022-08-03T03:07:39;4.15;;;2.97;;
29688;SDS011;16600;47.444;8.334;2022-08-03T03:10:06;8.43;;;3.30;;
29688;SDS011;16600;47.444;8.334;2022-08-03T03:12:32;3.75;;;3.40;;
29688;SDS011;16600;47.444;8.334;2022-08-03T03:17:23;5.57;;;3.58;;
29688;SDS011;16600;47.444;8.334;2022-08-03T03:19:50;5.20;;;3.50;;
29688;SDS011;16600;47.444;8.334;2022-08-03T03:24:41;4.10;;;3.50;;
29688;SDS011;16600;47.444;8.334;2022-08-03T03:29:32;6.00;;;3.40;;
29688;SDS011;16600;47.444;8.334;2022-08-03T03:31:59;5.22;;;3.50;;
29688;SDS011;16600;47.444;8.334;2022-08-03T03:34:25;4.72;;;3.38;;
29688;SDS011;16600;47.444;8.334;2022-08-03T03:36:52;3.42;;;3.10;;
29688;SDS011;16600;47.444;8.334;2022-08-03T03:41:43;6.25;;;4.13;;
29688;SDS011;16600;47.444;8.334;2022-08-03T03:46:34;7.30;;;3.70;;
29688;SDS011;16600;47.444;8.334;2022-08-03T03:51:26;4.60;;;3.70;;
29688;SDS011;16600;47.444;8.334;2022-08-03T03:56:17;5.35;;;3.83;;
29688;SDS011;16600;47.444;8.334;2022-08-03T04:03:00;5.73;;;3.73;;
29688;SDS011;16600;47.444;8.334;2022-08-03T04:08:11;6.15;;;3.60;;
29688;SDS011;16600;47.444;8.334;2022-08-03T04:11:08;5.32;;;3.20;;
29688;SDS011;16600;47.444;8.334;2022-08-03T04:13:39;5.78;;;3.38;;
29688;SDS011;16600;47.444;8.334;2022-08-03T04:16:06;5.25;;;3.72;;
29688;SDS011;16600;47.444;8.334;2022-08-03T04:18:33;6.65;;;3.88;;
29688;SDS011;16600;47.444;8.334;2022-08-03T04:21:03;4.78;;;3.78;;
29688;SDS011;16600;47.444;8.334;2022-08-03T04:23:30;6.47;;;3.13;;
29688;SDS011;16600;47.444;8.334;2022-08-03T04:25:57;4.93;;;3.80;;
29688;SDS011;16600;47.444;8.334;2022-08-03T04:28:23;4.20;;;3.80;;
29688;SDS011;16600;47.444;8.334;2022-08-03T04:33:17;3.38;;;3.10;;
29688;SDS011;16600;47.444;8.334;2022-08-03T04:35:43;8.43;;;3.97;;
29688;SDS011;16600;47.444;8.334;2022-08-03T04:38:12;4.72;;;3.63;;
29688;SDS011;16600;47.444;8.334;2022-08-03T04:40:41;9.55;;;4.40;;
29688;SDS011;16600;47.444;8.334;2022-08-03T04:43:09;7.50;;;4.10;;
29688;SDS011;16600;47.444;8.334;2022-08-03T04:45:35;5.57;;;3.95;;
29688;SDS011;16600;47.444;8.334;2022-08-03T04:50:26;5.88;;;3.33;;
29688;SDS011;16600;47.444;8.334;2022-08-03T04:53:04;3.97;;;3.20;;
29688;SDS011;16600;47.444;8.334;2022-08-03T04:57:55;4.43;;;3.00;;
29688;SDS011;16600;47.444;8.334;2022-08-03T05:00:22;5.75;;;3.30;;
29688;SDS011;16600;47.444;8.334;2022-08-03T05:02:48;3.55;;;3.25;;
29688;SDS011;16600;47.444;8.334;2022-08-03T05:05:14;5.78;;;3.03;;
29688;SDS011;16600;47.444;8.334;2022-08-03T05:07:41;5.32;;;3.58;;
29688;SDS011;16600;47.444;8.334;2022-08-03T05:10:07;8.82;;;3.80;;
29688;SDS011;16600;47.444;8.334;2022-08-03T05:12:33;3.00;;;2.70;;
29688;SDS011;16600;47.444;8.334;2022-08-03T05:14:59;4.07;;;3.40;;
29688;SDS011;16600;47.444;8.334;2022-08-03T05:17:25;7.10;;;3.35;;
29688;SDS011;16600;47.444;8.334;2022-08-03T05:19:52;7.93;;;3.20;;
29688;SDS011;16600;47.444;8.334;2022-08-03T05:22:18;10.40;;;3.55;;
29688;SDS011;16600;47.444;8.334;2022-08-03T05:24:44;4.00;;;3.00;;
29688;SDS011;16600;47.444;8.334;2022-08-03T05:27:09;4.20;;;2.90;;
29688;SDS011;16600;47.444;8.334;2022-08-03T05:29:41;6.75;;;3.70;;
29688;SDS011;16600;47.444;8.334;2022-08-03T05:32:07;4.50;;;4.05;;
29688;SDS011;16600;47.444;8.334;2022-08-03T05:34:33;3.38;;;2.83;;
29688;SDS011;16600;47.444;8.334;2022-08-03T05:36:59;3.53;;;3.03;;
29688;SDS011;16600;47.444;8.334;2022-08-03T05:39:24;5.65;;;3.03;;
29688;SDS011;16600;47.444;8.334;2022-08-03T05:41:50;11.30;;;3.03;;
29688;SDS011;16600;47.444;8.334;2022-08-03T05:44:16;4.90;;;3.15;;
29688;SDS011;16600;47.444;8.334;2022-08-03T05:46:41;9.85;;;3.00;;
29688;SDS011;16600;47.444;8.334;2022-08-03T05:49:07;3.15;;;2.85;;
29688;SDS011;16600;47.444;8.334;2022-08-03T05:51:33;3.50;;;2.83;;
29688;SDS011;16600;47.444;8.334;2022-08-03T05:54:02;3.72;;;2.83;;
29688;SDS011;16600;47.444;8.334;2022-08-03T05:56:28;4.30;;;2.72;;
29688;SDS011;16600;47.444;8.334;2022-08-03T05:58:54;3.28;;;2.97;;
29688;SDS011;16600;47.444;8.334;2022-08-03T06:01:20;4.35;;;3.20;;
29688;SDS011;16600;47.444;8.334;2022-08-03T06:03:46;9.68;;;3.33;;
29688;SDS011;16600;47.444;8.334;2022-08-03T06:06:13;12.10;;;3.78;;
29688;SDS011;16600;47.444;8.334;2022-08-03T06:08:39;3.63;;;3.05;;
29688;SDS011;16600;47.444;8.334;2022-08-03T06:11:04;8.27;;;3.17;;
29688;SDS011;16600;47.444;8.334;2022-08-03T06:13:30;5.13;;;2.95;;
29688;SDS011;16600;47.444;8.334;2022-08-03T06:15:56;5.35;;;3.25;;
29688;SDS011;16600;47.444;8.334;2022-08-03T06:18:25;11.75;;;3.35;;
29688;SDS011;16600;47.444;8.334;2022-08-03T06:20:51;6.32;;;3.42;;
29688;SDS011;16600;47.444;8.334;2022-08-03T06:23:17;6.80;;;2.40;;
29688;SDS011;16600;47.444;8.334;2022-08-03T06:25:42;5.43;;;3.33;;
29688;SDS011;16600;47.444;8.334;2022-08-03T06:28:08;4.90;;;2.63;;
29688;SDS011;16600;47.444;8.334;2022-08-03T06:30:34;4.68;;;3.15;;
29688;SDS011;16600;47.444;8.334;2022-08-03T06:33:00;2.97;;;2.63;;
29688;SDS011;16600;47.444;8.334;2022-08-03T06:35:29;3.10;;;2.25;;
29688;SDS011;16600;47.444;8.334;2022-08-03T06:37:55;9.07;;;2.90;;
29688;SDS011;16600;47.444;8.334;2022-08-03T06:40:24;5.18;;;2.40;;
29688;SDS011;16600;47.444;8.334;2022-08-03T06:42:56;4.68;;;2.58;;
29688;SDS011;16600;47.444;8.334;2022-08-03T06:45:28;3.78;;;2.58;;
29688;SDS011;16600;47.444;8.334;2022-08-03T06:48:01;9.98;;;2.90;;
29688;SDS011;16600;47.444;8.334;2022-08-03T06:50:27;3.33;;;2.58;;
29688;SDS011;16600;47.444;8.334;2022-08-03T06:52:52;3.95;;;2.40;;
29688;SDS011;16600;47.444;8.334;2022-08-03T06:55:18;2.53;;;2.25;;
29688;SDS011;16600;47.444;8.334;2022-08-03T06:57:43;2.80;;;2.17;;
29688;SDS011;16600;47.444;8.334;2022-08-03T07:00:09;3.38;;;2.70;;
29688;SDS011;16600;47.444;8.334;2022-08-03T07:02:36;3.00;;;2.53;;
29688;SDS011;16600;47.444;8.334;2022-08-03T07:05:01;3.28;;;2.35;;
29688;SDS011;16600;47.444;8.334;2022-08-03T07:07:26;3.28;;;2.58;;
29688;SDS011;16600;47.444;8.334;2022-08-03T07:09:52;3.92;;;2.75;;
29688;SDS011;16600;47.444;8.334;2022-08-03T07:12:17;7.03;;;2.88;;
29688;SDS011;16600;47.444;8.334;2022-08-03T07:14:43;2.22;;;2.05;;
29688;SDS011;16600;47.444;8.334;2022-08-03T07:17:09;2.88;;;2.22;;
29688;SDS011;16600;47.444;8.334;2022-08-03T07:19:34;2.95;;;2.40;;
29688;SDS011;16600;47.444;8.334;2022-08-03T07:22:00;2.80;;;2.30;;
29688;SDS011;16600;47.444;8.334;2022-08-03T07:24:27;7.07;;;2.50;;
29688;SDS011;16600;47.444;8.334;2022-08-03T07:26:53;6.50;;;2.45;;
29688;SDS011;16600;47.444;8.334;2022-08-03T07:29:18;2.97;;;2.50;;
29688;SDS011;16600;47.444;8.334;2022-08-03T07:31:44;2.88;;;2.67;;
29688;SDS011;16600;47.444;8.334;2022-08-03T07:34:10;3.33;;;2.85;;
29688;SDS011;16600;47.444;8.334;2022-08-03T07:36:35;3.08;;;2.50;;
29688;SDS011;16600;47.444;8.334;2022-08-03T07:39:01;2.13;;;2.03;;
29688;SDS011;16600;47.444;8.334;2022-08-03T07:41:26;6.75;;;2.40;;
29688;SDS011;16600;47.444;8.334;2022-08-03T07:43:52;3.50;;;2.83;;
29688;SDS011;16600;47.444;8.334;2022-08-03T07:46:17;2.42;;;2.22;;
29688;SDS011;16600;47.444;8.334;2022-08-03T07:48:43;4.47;;;2.80;;
29688;SDS011;16600;47.444;8.334;2022-08-03T07:51:08;3.33;;;2.80;;
29688;SDS011;16600;47.444;8.334;2022-08-03T07:53:34;2.50;;;2.30;;
29688;SDS011;16600;47.444;8.334;2022-08-03T07:55:59;2.30;;;2.20;;
29688;SDS011;16600;47.444;8.334;2022-08-03T07:58:25;3.40;;;2.38;;
29688;SDS011;16600;47.444;8.334;2022-08-03T08:00:50;5.18;;;3.60;;
29688;SDS011;16600;47.444;8.334;2022-08-03T08:03:17;4.47;;;2.42;;
29688;SDS011;16600;47.444;8.334;2022-08-03T08:05:43;2.20;;;2.00;;
29688;SDS011;16600;47.444;8.334;2022-08-03T08:08:08;2.53;;;2.33;;
29688;SDS011;16600;47.444;8.334;2022-08-03T08:10:34;2.50;;;2.30;;
29688;SDS011;16600;47.444;8.334;2022-08-03T08:13:00;9.32;;;2.70;;
29688;SDS011;16600;47.444;8.334;2022-08-03T08:15:26;3.75;;;2.88;;
29688;SDS011;16600;47.444;8.334;2022-08-03T08:17:53;2.40;;;2.20;;
29688;SDS011;16600;47.444;8.334;2022-08-03T08:20:21;2.65;;;2.22;;
29688;SDS011;16600;47.444;8.334;2022-08-03T08:22:47;2.63;;;2.42;;
29688;SDS011;16600;47.444;8.334;2022-08-03T08:25:13;3.20;;;2.90;;
29688;SDS011;16600;47.444;8.334;2022-08-03T08:27:46;7.28;;;2.97;;
29688;SDS011;16600;47.444;8.334;2022-08-03T08:30:12;7.18;;;3.47;;
29688;SDS011;16600;47.444;8.334;2022-08-03T08:32:38;3.28;;;3.00;;
29688;SDS011;16600;47.444;8.334;2022-08-03T08:35:04;3.60;;;3.30;;
29688;SDS011;16600;47.444;8.334;2022-08-03T08:37:30;3.17;;;2.50;;
29688;SDS011;16600;47.444;8.334;2022-08-03T08:39:56;5.28;;;3.00;;
29688;SDS011;16600;47.444;8.334;2022-08-03T08:42:21;3.20;;;2.80;;
29688;SDS011;16600;47.444;8.334;2022-08-03T08:44:47;4.00;;;2.58;;
29688;SDS011;16600;47.444;8.334;2022-08-03T08:47:13;3.70;;;3.20;;
29688;SDS011;16600;47.444;8.334;2022-08-03T08:49:38;6.82;;;2.92;;
29688;SDS011;16600;47.444;8.334;2022-08-03T08:52:05;3.10;;;2.50;;
29688;SDS011;16600;47.444;8.334;2022-08-03T08:54:32;3.35;;;2.40;;
29688;SDS011;16600;47.444;8.334;2022-08-03T08:57:00;4.30;;;2.72;;
29688;SDS011;16600;47.444;8.334;2022-08-03T08:59:26;2.90;;;2.47;;
29688;SDS011;16600;47.444;8.334;2022-08-03T09:01:55;3.05;;;2.22;;
29688;SDS011;16600;47.444;8.334;2022-08-03T09:04:21;3.45;;;2.67;;
29688;SDS011;16600;47.444;8.334;2022-08-03T09:06:46;5.05;;;3.03;;
29688;SDS011;16600;47.444;8.334;2022-08-03T09:09:12;4.15;;;2.95;;
29688;SDS011;16600;47.444;8.334;2022-08-03T09:11:41;4.40;;;2.70;;
29688;SDS011;16600;47.444;8.334;2022-08-03T09:14:06;2.55;;;2.35;;
29688;SDS011;16600;47.444;8.334;2022-08-03T09:16:33;4.65;;;2.50;;
29688;SDS011;16600;47.444;8.334;2022-08-03T09:19:02;3.88;;;2.72;;
29688;SDS011;16600;47.444;8.334;2022-08-03T09:21:36;4.00;;;2.83;;
29688;SDS011;16600;47.444;8.334;2022-08-03T09:24:03;3.58;;;2.58;;
29688;SDS011;16600;47.444;8.334;2022-08-03T09:26:30;7.70;;;2.75;;
29688;SDS011;16600;47.444;8.334;2022-08-03T09:28:59;3.13;;;2.50;;
29688;SDS011;16600;47.444;8.334;2022-08-03T09:31:32;5.50;;;2.42;;
29688;SDS011;16600;47.444;8.334;2022-08-03T09:34:04;3.95;;;2.17;;
29688;SDS011;16600;47.444;8.334;2022-08-03T09:39:02;2.60;;;2.40;;
29688;SDS011;16600;47.444;8.334;2022-08-03T09:41:31;2.45;;;2.25;;
29688;SDS011;16600;47.444;8.334;2022-08-03T09:43:56;2.80;;;2.50;;
29688;SDS011;16600;47.444;8.334;2022-08-03T09:46:22;2.63;;;2.40;;
29688;SDS011;16600;47.444;8.334;2022-08-03T09:48:47;7.55;;;2.30;;
29688;SDS011;16600;47.444;8.334;2022-08-03T09:51:13;3.45;;;2.22;;
29688;SDS011;16600;47.444;8.334;2022-08-03T09:53:43;2.40;;;1.70;;
29688;SDS011;16600;47.444;8.334;2022-08-03T09:56:09;1.80;;;1.70;;
29688;SDS011;16600;47.444;8.334;2022-08-03T09:58:38;6.75;;;1.92;;
29688;SDS011;16600;47.444;8.334;2022-08-03T10:03:04;6.68;;;3.10;;
29688;SDS011;16600;47.444;8.334;2022-08-03T10:05:30;3.42;;;2.75;;
29688;SDS011;16600;47.444;8.334;2022-08-03T10:07:56;6.20;;;2.60;;
29688;SDS011;16600;47.444;8.334;2022-08-03T10:10:22;2.63;;;2.33;;
29688;SDS011;16600;47.444;8.334;2022-08-03T10:12:47;6.40;;;2.63;;
29688;SDS011;16600;47.444;8.334;2022-08-03T10:15:13;6.30;;;2.50;;
29688;SDS011;16600;47.444;8.334;2022-08-03T10:17:38;3.28;;;2.25;;
29688;SDS011;16600;47.444;8.334;2022-08-03T10:20:05;3.58;;;2.75;;
29688;SDS011;16600;47.444;8.334;2022-08-03T10:22:34;2.20;;;2.00;;
29688;SDS011;16600;47.444;8.334;2022-08-03T10:25:08;5.45;;;2.50;;
29688;SDS011;16600;47.444;8.334;2022-08-03T10:27:37;4.28;;;3.05;;
29688;SDS011;16600;47.444;8.334;2022-08-03T10:30:05;3.55;;;2.50;;
29688;SDS011;16600;47.444;8.334;2022-08-03T10:35:04;2.47;;;2.25;;
29688;SDS011;16600;47.444;8.334;2022-08-03T10:37:31;3.78;;;2.70;;
29688;SDS011;16600;47.444;8.334;2022-08-03T10:39:57;3.00;;;2.55;;
29688;SDS011;16600;47.444;8.334;2022-08-03T10:42:24;5.75;;;2.42;;
29688;SDS011;16600;47.444;8.334;2022-08-03T10:45:02;2.40;;;2.17;;
29688;SDS011;16600;47.444;8.334;2022-08-03T10:47:29;2.20;;;2.00;;
29688;SDS011;16600;47.444;8.334;2022-08-03T10:49:54;3.53;;;2.65;;
29688;SDS011;16600;47.444;8.334;2022-08-03T10:52:20;2.25;;;2.05;;
29688;SDS011;16600;47.444;8.334;2022-08-03T10:54:45;6.57;;;2.30;;
29688;SDS011;16600;47.444;8.334;2022-08-03T10:58:03;3.00;;;2.35;;
29688;SDS011;16600;47.444;8.334;2022-08-03T11:00:23;4.53;;;2.40;;
29688;SDS011;16600;47.444;8.334;2022-08-03T11:05:34;2.50;;;2.30;;
29688;SDS011;16600;47.444;8.334;2022-08-03T11:10:44;3.45;;;2.75;;
29688;SDS011;16600;47.444;8.334;2022-08-03T11:13:10;14.73;;;2.40;;
29688;SDS011;16600;47.444;8.334;2022-08-03T11:15:39;2.33;;;1.85;;
29688;SDS011;16600;47.444;8.334;2022-08-03T11:18:08;2.45;;;2.25;;
29688;SDS011;16600;47.444;8.334;2022-08-03T11:20:46;9.30;;;2.72;;
29688;SDS011;16600;47.444;8.334;2022-08-03T11:23:12;3.13;;;2.28;;
29688;SDS011;16600;47.444;8.334;2022-08-03T11:28:33;5.32;;;2.80;;
29688;SDS011;16600;47.444;8.334;2022-08-03T11:33:44;8.00;;;2.40;;
29688;SDS011;16600;47.444;8.334;2022-08-03T11:36:27;3.38;;;2.55;;
29688;SDS011;16600;47.444;8.334;2022-08-03T11:39:11;2.95;;;2.70;;
29688;SDS011;16600;47.444;8.334;2022-08-03T11:41:37;2.58;;;2.17;;
29688;SDS011;16600;47.444;8.334;2022-08-03T11:44:03;3.22;;;2.33;;
29688;SDS011;16600;47.444;8.334;2022-08-03T11:46:28;6.07;;;2.30;;
29688;SDS011;16600;47.444;8.334;2022-08-03T11:49:04;2.45;;;2.25;;
29688;SDS011;16600;47.444;8.334;2022-08-03T11:51:30;2.40;;;2.20;;
29688;SDS011;16600;47.444;8.334;2022-08-03T11:53:57;3.53;;;2.17;;
29688;SDS011;16600;47.444;8.334;2022-08-03T11:56:23;25.90;;;5.55;;
29688;SDS011;16600;47.444;8.334;2022-08-03T11:58:50;1.63;;;1.52;;
29688;SDS011;16600;47.444;8.334;2022-08-03T12:01:19;2.67;;;1.90;;
29688;SDS011;16600;47.444;8.334;2022-08-03T12:03:45;2.67;;;2.10;;
29688;SDS011;16600;47.444;8.334;2022-08-03T12:06:11;1.88;;;1.70;;
29688;SDS011;16600;47.444;8.334;2022-08-03T12:08:37;1.83;;;1.50;;
29688;SDS011;16600;47.444;8.334;2022-08-03T12:11:04;3.05;;;1.77;;
29688;SDS011;16600;47.444;8.334;2022-08-03T12:13:47;1.65;;;1.50;;
29688;SDS011;16600;47.444;8.334;2022-08-03T12:16:20;2.40;;;1.67;;
29688;SDS011;16600;47.444;8.334;2022-08-03T12:18:56;1.67;;;1.42;;
29688;SDS011;16600;47.444;8.334;2022-08-03T12:21:21;2.08;;;1.48;;
29688;SDS011;16600;47.444;8.334;2022-08-03T12:23:49;1.58;;;1.40;;
29688;SDS011;16600;47.444;8.334;2022-08-03T12:26:14;1.40;;;1.30;;
29688;SDS011;16600;47.444;8.334;2022-08-03T12:28:46;1.80;;;1.60;;
29688;SDS011;16600;47.444;8.334;2022-08-03T12:31:11;2.33;;;1.70;;
29688;SDS011;16600;47.444;8.334;2022-08-03T12:33:53;1.75;;;1.55;;
29688;SDS011;16600;47.444;8.334;2022-08-03T12:36:19;2.60;;;2.00;;
29688;SDS011;16600;47.444;8.334;2022-08-03T12:38:52;1.60;;;1.50;;
29688;SDS011;16600;47.444;8.334;2022-08-03T12:41:25;2.50;;;1.77;;
29688;SDS011;16600;47.444;8.334;2022-08-03T12:43:51;2.45;;;1.60;;
29688;SDS011;16600;47.444;8.334;2022-08-03T12:46:17;4.63;;;1.40;;
29688;SDS011;16600;47.444;8.334;2022-08-03T12:51:34;1.27;;;1.17;;
29688;SDS011;16600;47.444;8.334;2022-08-03T12:54:00;5.00;;;1.40;;
29688;SDS011;16600;47.444;8.334;2022-08-03T12:56:26;1.52;;;1.40;;
29688;SDS011;16600;47.444;8.334;2022-08-03T12:58:51;2.08;;;1.83;;
29688;SDS011;16600;47.444;8.334;2022-08-03T13:01:17;1.55;;;1.45;;
29688;SDS011;16600;47.444;8.334;2022-08-03T13:03:46;3.42;;;1.35;;
29688;SDS011;16600;47.444;8.334;2022-08-03T13:06:13;1.70;;;1.60;;
29688;SDS011;16600;47.444;8.334;2022-08-03T13:08:39;4.03;;;2.05;;
29688;SDS011;16600;47.444;8.334;2022-08-03T13:13:43;3.30;;;1.77;;
29688;SDS011;16600;47.444;8.334;2022-08-03T13:16:08;2.20;;;1.65;;
29688;SDS011;16600;47.444;8.334;2022-08-03T13:18:34;2.83;;;1.60;;
29688;SDS011;16600;47.444;8.334;2022-08-03T13:20:59;3.20;;;1.63;;
29688;SDS011;16600;47.444;8.334;2022-08-03T13:23:25;1.95;;;1.60;;
29688;SDS011;16600;47.444;8.334;2022-08-03T13:25:50;3.00;;;1.70;;
29688;SDS011;16600;47.444;8.334;2022-08-03T13:28:16;2.55;;;1.50;;
29688;SDS011;16600;47.444;8.334;2022-08-03T13:30:41;1.67;;;1.30;;
29688;SDS011;16600;47.444;8.334;2022-08-03T13:33:07;1.30;;;1.23;;
29688;SDS011;16600;47.444;8.334;2022-08-03T13:35:32;2.47;;;1.55;;
29688;SDS011;16600;47.444;8.334;2022-08-03T13:37:58;3.80;;;1.30;;
29688;SDS011;16600;47.444;8.334;2022-08-03T13:40:23;2.08;;;1.40;;
29688;SDS011;16600;47.444;8.334;2022-08-03T13:42:49;2.75;;;1.30;;
29688;SDS011;16600;47.444;8.334;2022-08-03T13:45:14;1.65;;;1.25;;
29688;SDS011;16600;47.444;8.334;2022-08-03T13:47:40;1.48;;;1.30;;
29688;SDS011;16600;47.444;8.334;2022-08-03T13:50:05;1.70;;;1.38;;
29688;SDS011;16600;47.444;8.334;2022-08-03T13:52:32;2.08;;;1.60;;
29688;SDS011;16600;47.444;8.334;2022-08-03T13:54:57;1.27;;;1.17;;
29688;SDS011;16600;47.444;8.334;2022-08-03T13:57:23;3.58;;;1.10;;
29688;SDS011;16600;47.444;8.334;2022-08-03T13:59:49;1.30;;;1.10;;
29688;SDS011;16600;47.444;8.334;2022-08-03T14:02:14;4.32;;;1.10;;
29688;SDS011;16600;47.444;8.334;2022-08-03T14:04:40;1.70;;;1.20;;
29688;SDS011;16600;47.444;8.334;2022-08-03T14:07:06;1.55;;;1.42;;
29688;SDS011;16600;47.444;8.334;2022-08-03T14:09:31;1.38;;;1.23;;
29688;SDS011;16600;47.444;8.334;2022-08-03T14:11:57;1.27;;;1.17;;
29688;SDS011;16600;47.444;8.334;2022-08-03T14:14:24;1.30;;;1.20;;
29688;SDS011;16600;47.444;8.334;2022-08-03T14:16:49;1.23;;;1.02;;
29688;SDS011;16600;47.444;8.334;2022-08-03T14:19:15;1.35;;;1.25;;
29688;SDS011;16600;47.444;8.334;2022-08-03T14:21:41;1.35;;;1.25;;
29688;SDS011;16600;47.444;8.334;2022-08-03T14:24:07;1.02;;;0.98;;
29688;SDS011;16600;47.444;8.334;2022-08-03T14:26:32;1.70;;;1.00;;
29688;SDS011;16600;47.444;8.334;2022-08-03T14:28:58;1.23;;;1.10;;
29688;SDS011;16600;47.444;8.334;2022-08-03T14:31:24;1.20;;;1.10;;
29688;SDS011;16600;47.444;8.334;2022-08-03T14:33:50;3.47;;;0.93;;
29688;SDS011;16600;47.444;8.334;2022-08-03T14:36:16;2.78;;;1.33;;
29688;SDS011;16600;47.444;8.334;2022-08-03T14:38:41;8.60;;;1.60;;
29688;SDS011;16600;47.444;8.334;2022-08-03T14:41:07;3.17;;;1.40;;
29688;SDS011;16600;47.444;8.334;2022-08-03T14:43:33;1.00;;;1.00;;
29688;SDS011;16600;47.444;8.334;2022-08-03T14:45:58;1.30;;;1.20;;
29688;SDS011;16600;47.444;8.334;2022-08-03T14:48:23;1.67;;;1.38;;
29688;SDS011;16600;47.444;8.334;2022-08-03T14:50:51;1.30;;;1.20;;
29688;SDS011;16600;47.444;8.334;2022-08-03T14:53:17;1.75;;;1.23;;
29688;SDS011;16600;47.444;8.334;2022-08-03T14:55:42;3.15;;;1.40;;
29688;SDS011;16600;47.444;8.334;2022-08-03T14:58:08;1.48;;;1.35;;
29688;SDS011;16600;47.444;8.334;2022-08-03T15:00:34;3.25;;;0.93;;
29688;SDS011;16600;47.444;8.334;2022-08-03T15:02:59;1.33;;;1.23;;
29688;SDS011;16600;47.444;8.334;2022-08-03T15:05:25;1.70;;;1.40;;
29688;SDS011;16600;47.444;8.334;2022-08-03T15:07:50;1.25;;;1.15;;
29688;SDS011;16600;47.444;8.334;2022-08-03T15:10:16;1.27;;;1.17;;
29688;SDS011;16600;47.444;8.334;2022-08-03T15:12:42;4.22;;;1.63;;
29688;SDS011;16600;47.444;8.334;2022-08-03T15:15:08;1.50;;;1.40;;
29688;SDS011;16600;47.444;8.334;2022-08-03T15:17:34;1.80;;;1.30;;
29688;SDS011;16600;47.444;8.334;2022-08-03T15:19:59;1.80;;;1.30;;
29688;SDS011;16600;47.444;8.334;2022-08-03T15:22:25;5.15;;;1.63;;
29688;SDS011;16600;47.444;8.334;2022-08-03T15:24:50;1.13;;;1.02;;
29688;SDS011;16600;47.444;8.334;2022-08-03T15:27:16;1.60;;;1.50;;
29688;SDS011;16600;47.444;8.334;2022-08-03T15:29:41;3.35;;;1.20;;
29688;SDS011;16600;47.444;8.334;2022-08-03T15:32:07;5.82;;;1.80;;
29688;SDS011;16600;47.444;8.334;2022-08-03T15:34:32;1.88;;;1.30;;
29688;SDS011;16600;47.444;8.334;2022-08-03T15:36:58;2.05;;;1.20;;
29688;SDS011;16600;47.444;8.334;2022-08-03T15:39:23;0.98;;;0.98;;
29688;SDS011;16600;47.444;8.334;2022-08-03T15:41:49;2.80;;;1.30;;
29688;SDS011;16600;47.444;8.334;2022-08-03T15:44:18;2.50;;;1.70;;
29688;SDS011;16600;47.444;8.334;2022-08-03T15:46:43;1.40;;;1.30;;
29688;SDS011;16600;47.444;8.334;2022-08-03T15:49:09;3.92;;;1.50;;
29688;SDS011;16600;47.444;8.334;2022-08-03T15:51:35;2.83;;;1.17;;
29688;SDS011;16600;47.444;8.334;2022-08-03T15:54:02;2.05;;;1.35;;
29688;SDS011;16600;47.444;8.334;2022-08-03T15:56:28;1.67;;;1.45;;
29688;SDS011;16600;47.444;8.334;2022-08-03T15:58:53;1.85;;;1.33;;
29688;SDS011;16600;47.444;8.334;2022-08-03T16:03:02;3.35;;;1.30;;
29688;SDS011;16600;47.444;8.334;2022-08-03T16:05:28;3.47;;;1.30;;
29688;SDS011;16600;47.444;8.334;2022-08-03T16:07:53;2.15;;;1.95;;
29688;SDS011;16600;47.444;8.334;2022-08-03T16:10:19;1.20;;;1.10;;
29688;SDS011;16600;47.444;8.334;2022-08-03T16:12:45;2.65;;;1.20;;
29688;SDS011;16600;47.444;8.334;2022-08-03T16:15:11;1.23;;;1.20;;
29688;SDS011;16600;47.444;8.334;2022-08-03T16:17:37;5.45;;;1.30;;
29688;SDS011;16600;47.444;8.334;2022-08-03T16:20:04;4.93;;;1.60;;
29688;SDS011;16600;47.444;8.334;2022-08-03T16:22:29;2.67;;;1.30;;
29688;SDS011;16600;47.444;8.334;2022-08-03T16:24:55;3.47;;;1.35;;
29688;SDS011;16600;47.444;8.334;2022-08-03T16:27:21;3.33;;;1.10;;
29688;SDS011;16600;47.444;8.334;2022-08-03T16:29:47;1.50;;;1.40;;
29688;SDS011;16600;47.444;8.334;2022-08-03T16:32:13;1.58;;;1.40;;
29688;SDS011;16600;47.444;8.334;2022-08-03T16:34:39;1.52;;;1.40;;